PWSweather.com
Personal Weather Stations
Station Observations
KCARIDGE3
Ridgecrest, CA 93555

Ridgecrest, CA 93555

Lat: 35.62083817, Lon: -117.6733017

Elevation: 2315

Station Type:

High Low Average
Temperature 82.0°F27.8°C 58.6°F14.8°C 69.1°F20.6°C
Dew Point 32.9°F0.5°C 7.2°F-13.8°C 19.1°F-7.2°C
Winds 21.0 mph 33.8 kmh 0.9 mph 1.4 kmh 8.0 mph SSW12.9 kmh SSW
Wind Gusts 23.0 mph37.0 kmh -- 8.0 mph12.9 kmh
Humidity 34% 6% 17%
Pressure -338605.1 mb -338605.1 mb -
Precipitation 0.00 in0.0 mm - -
Hour Temp Dew Point Humidity Winds Wind Gusts Pressure Precip Precip Rate Daily Precip Total
12:02 AM 63.9°F17.7°C 32.7°F0.4°C 31% 17.0 mph W27.4 kmh W 8.1 mph13.0 kmh -338605.1 mb 0.00 in0.0 mm 0.00 in/hr0.0 mm/hr 0.00 in0.0 mm
12:07 AM 63.7°F17.6°C 32.5°F0.3°C 31% 16.1 mph SW25.9 kmh SW 14.1 mph22.7 kmh -338605.1 mb 0.00 in0.0 mm 0.00 in/hr0.0 mm/hr 0.00 in0.0 mm
12:12 AM 63.7°F17.6°C 32.5°F0.3°C 31% 13.0 mph SW20.9 kmh SW 8.9 mph14.3 kmh -338605.1 mb 0.00 in0.0 mm 0.00 in/hr0.0 mm/hr 0.00 in0.0 mm
12:17 AM 63.3°F17.4°C 32.2°F0.1°C 31% 12.1 mph WSW19.5 kmh WSW 16.1 mph25.9 kmh -338605.1 mb 0.00 in0.0 mm 0.00 in/hr0.0 mm/hr 0.00 in0.0 mm
12:22 AM 63.5°F17.5°C 31.5°F-0.3°C 30% 13.0 mph W20.9 kmh W 17.0 mph27.4 kmh -338605.1 mb 0.00 in0.0 mm 0.00 in/hr0.0 mm/hr 0.00 in0.0 mm
12:27 AM 63.5°F17.5°C 30.7°F-0.7°C 29% 14.1 mph WSW22.7 kmh WSW 8.9 mph14.3 kmh -338605.1 mb 0.00 in0.0 mm 0.00 in/hr0.0 mm/hr 0.00 in0.0 mm
12:32 AM 64.0°F17.8°C 29.3°F-1.5°C 27% 14.1 mph WSW22.7 kmh WSW 12.1 mph19.5 kmh -338605.1 mb 0.00 in0.0 mm 0.00 in/hr0.0 mm/hr 0.00 in0.0 mm
12:37 AM 64.4°F18.0°C 28.8°F-1.8°C 26% 14.1 mph WSW22.7 kmh WSW 16.1 mph25.9 kmh -338605.1 mb 0.00 in0.0 mm 0.00 in/hr0.0 mm/hr 0.00 in0.0 mm
12:42 AM 64.4°F18.0°C 27.9°F-2.3°C 25% 14.1 mph WSW22.7 kmh WSW 12.1 mph19.5 kmh -338605.1 mb 0.00 in0.0 mm 0.00 in/hr0.0 mm/hr 0.00 in0.0 mm
12:47 AM 64.2°F17.9°C 27.7°F-2.4°C 25% 12.1 mph W19.5 kmh W 6.0 mph9.7 kmh -338605.1 mb 0.00 in0.0 mm 0.00 in/hr0.0 mm/hr 0.00 in0.0 mm
12:52 AM 63.9°F17.7°C 27.3°F-2.6°C 25% 10.1 mph SW16.3 kmh SW 8.9 mph14.3 kmh -338605.1 mb 0.00 in0.0 mm 0.00 in/hr0.0 mm/hr 0.00 in0.0 mm
12:57 AM 63.7°F17.6°C 27.1°F-2.7°C 25% 8.1 mph SW13.0 kmh SW 6.0 mph9.7 kmh -338605.1 mb 0.00 in0.0 mm 0.00 in/hr0.0 mm/hr 0.00 in0.0 mm
01:02 AM 63.3°F17.4°C 27.0°F-2.8°C 25% 6.9 mph WSW11.1 kmh WSW 6.0 mph9.7 kmh -338605.1 mb 0.00 in0.0 mm 0.00 in/hr0.0 mm/hr 0.00 in0.0 mm
01:07 AM 63.3°F17.4°C 27.0°F-2.8°C 25% 6.9 mph WSW11.1 kmh WSW 12.1 mph19.5 kmh -338605.1 mb 0.00 in0.0 mm 0.00 in/hr0.0 mm/hr 0.00 in0.0 mm
01:12 AM 63.3°F17.4°C 28.8°F-1.8°C 27% 8.9 mph SW14.3 kmh SW 6.9 mph11.1 kmh -338605.1 mb 0.00 in0.0 mm 0.00 in/hr0.0 mm/hr 0.00 in0.0 mm
01:17 AM 63.3°F17.4°C 28.8°F-1.8°C 27% 11.0 mph WSW17.7 kmh WSW 13.0 mph20.9 kmh -338605.1 mb 0.00 in0.0 mm 0.00 in/hr0.0 mm/hr 0.00 in0.0 mm
01:22 AM 63.1°F17.3°C 28.6°F-1.9°C 27% 13.0 mph WSW20.9 kmh WSW 17.9 mph28.8 kmh -338605.1 mb 0.00 in0.0 mm 0.00 in/hr0.0 mm/hr 0.00 in0.0 mm
01:27 AM 63.1°F17.3°C 28.6°F-1.9°C 27% 16.1 mph WSW25.9 kmh WSW 15.0 mph24.1 kmh -338605.1 mb 0.00 in0.0 mm 0.00 in/hr0.0 mm/hr 0.00 in0.0 mm
01:32 AM 63.0°F17.2°C 29.3°F-1.5°C 28% 17.0 mph WSW27.4 kmh WSW 10.1 mph16.3 kmh -338605.1 mb 0.00 in0.0 mm 0.00 in/hr0.0 mm/hr 0.00 in0.0 mm
01:37 AM 62.8°F17.1°C 29.1°F-1.6°C 28% 16.1 mph WSW25.9 kmh WSW 19.0 mph30.6 kmh -338605.1 mb 0.00 in0.0 mm 0.00 in/hr0.0 mm/hr 0.00 in0.0 mm
01:42 AM 62.8°F17.1°C 29.1°F-1.6°C 28% 16.1 mph SW25.9 kmh SW 13.0 mph20.9 kmh -338605.1 mb 0.00 in0.0 mm 0.00 in/hr0.0 mm/hr 0.00 in0.0 mm
01:47 AM 62.6°F17.0°C 30.7°F-0.7°C 30% 15.0 mph WSW24.1 kmh WSW 17.9 mph28.8 kmh -338605.1 mb 0.00 in0.0 mm 0.00 in/hr0.0 mm/hr 0.00 in0.0 mm
01:52 AM 62.1°F16.7°C 32.5°F0.3°C 33% 15.0 mph WSW24.1 kmh WSW 17.0 mph27.4 kmh -338605.1 mb 0.00 in0.0 mm 0.00 in/hr0.0 mm/hr 0.00 in0.0 mm
01:57 AM 61.9°F16.6°C 31.6°F-0.2°C 32% 16.1 mph WSW25.9 kmh WSW 15.0 mph24.1 kmh -338605.1 mb 0.00 in0.0 mm 0.00 in/hr0.0 mm/hr 0.00 in0.0 mm
02:02 AM 61.7°F16.5°C 32.4°F0.2°C 33% 16.1 mph WSW25.9 kmh WSW 13.0 mph20.9 kmh -338605.1 mb 0.00 in0.0 mm 0.00 in/hr0.0 mm/hr 0.00 in0.0 mm
02:07 AM 61.5°F16.4°C 32.2°F0.1°C 33% 16.1 mph WSW25.9 kmh WSW 23.0 mph37.0 kmh -338605.1 mb 0.00 in0.0 mm 0.00 in/hr0.0 mm/hr 0.00 in0.0 mm
02:12 AM 61.5°F16.4°C 32.9°F0.5°C 34% 17.0 mph SW27.4 kmh SW 19.9 mph32.0 kmh -338605.1 mb 0.00 in0.0 mm 0.00 in/hr0.0 mm/hr 0.00 in0.0 mm
02:17 AM 61.5°F16.4°C 32.2°F0.1°C 33% 17.9 mph SW28.8 kmh SW 19.0 mph30.6 kmh -338605.1 mb 0.00 in0.0 mm 0.00 in/hr0.0 mm/hr 0.00 in0.0 mm
02:22 AM 61.3°F16.3°C 32.0°F0.0°C 33% 19.9 mph WSW32.0 kmh WSW 19.0 mph30.6 kmh -338605.1 mb 0.00 in0.0 mm 0.00 in/hr0.0 mm/hr 0.00 in0.0 mm
02:27 AM 61.3°F16.3°C 32.0°F0.0°C 33% 21.0 mph WSW33.8 kmh WSW 19.0 mph30.6 kmh -338605.1 mb 0.00 in0.0 mm 0.00 in/hr0.0 mm/hr 0.00 in0.0 mm
02:32 AM 61.3°F16.3°C 32.0°F0.0°C 33% 19.0 mph SW30.6 kmh SW 16.1 mph25.9 kmh -338605.1 mb 0.00 in0.0 mm 0.00 in/hr0.0 mm/hr 0.00 in0.0 mm
02:37 AM 61.5°F16.4°C 30.6°F-0.8°C 31% 16.1 mph WSW25.9 kmh WSW 17.0 mph27.4 kmh -338605.1 mb 0.00 in0.0 mm 0.00 in/hr0.0 mm/hr 0.00 in0.0 mm
02:47 AM 61.3°F16.3°C 29.7°F-1.3°C 30% 8.9 mph WSW14.3 kmh WSW 8.1 mph13.0 kmh -338605.1 mb 0.00 in0.0 mm 0.00 in/hr0.0 mm/hr 0.00 in0.0 mm
02:52 AM 61.0°F16.1°C 30.2°F-1.0°C 31% 6.9 mph WSW11.1 kmh WSW 12.1 mph19.5 kmh -338605.1 mb 0.00 in0.0 mm 0.00 in/hr0.0 mm/hr 0.00 in0.0 mm
02:57 AM 60.6°F15.9°C 30.6°F-0.8°C 32% 6.9 mph WSW11.1 kmh WSW 4.0 mph6.4 kmh -338605.1 mb 0.00 in0.0 mm 0.00 in/hr0.0 mm/hr 0.00 in0.0 mm
03:02 AM 60.4°F15.8°C 30.4°F-0.9°C 32% 8.1 mph SW13.0 kmh SW 8.1 mph13.0 kmh -338605.1 mb 0.00 in0.0 mm 0.00 in/hr0.0 mm/hr 0.00 in0.0 mm
03:07 AM 60.4°F15.8°C 29.7°F-1.3°C 31% 8.9 mph WSW14.3 kmh WSW 8.9 mph14.3 kmh -338605.1 mb 0.00 in0.0 mm 0.00 in/hr0.0 mm/hr 0.00 in0.0 mm
03:12 AM 60.4°F15.8°C 29.7°F-1.3°C 31% 8.1 mph WSW13.0 kmh WSW 10.1 mph16.3 kmh -338605.1 mb 0.00 in0.0 mm 0.00 in/hr0.0 mm/hr 0.00 in0.0 mm
03:17 AM 60.4°F15.8°C 29.7°F-1.3°C 31% 8.9 mph WSW14.3 kmh WSW 13.0 mph20.9 kmh -338605.1 mb 0.00 in0.0 mm 0.00 in/hr0.0 mm/hr 0.00 in0.0 mm
03:22 AM 60.4°F15.8°C 30.4°F-0.9°C 32% 10.1 mph SW16.3 kmh SW 8.1 mph13.0 kmh -338605.1 mb 0.00 in0.0 mm 0.00 in/hr0.0 mm/hr 0.00 in0.0 mm
03:27 AM 60.4°F15.8°C 31.3°F-0.4°C 33% 10.1 mph WSW16.3 kmh WSW 10.1 mph16.3 kmh -338605.1 mb 0.00 in0.0 mm 0.00 in/hr0.0 mm/hr 0.00 in0.0 mm
03:32 AM 60.3°F15.7°C 31.1°F-0.5°C 33% 10.1 mph WSW16.3 kmh WSW 10.1 mph16.3 kmh -338605.1 mb 0.00 in0.0 mm 0.00 in/hr0.0 mm/hr 0.00 in0.0 mm
03:37 AM 60.1°F15.6°C 30.9°F-0.6°C 33% 10.1 mph SW16.3 kmh SW 8.1 mph13.0 kmh -338605.1 mb 0.00 in0.0 mm 0.00 in/hr0.0 mm/hr 0.00 in0.0 mm
03:42 AM 60.1°F15.6°C 30.9°F-0.6°C 33% 10.1 mph WSW16.3 kmh WSW 11.0 mph17.7 kmh -338605.1 mb 0.00 in0.0 mm 0.00 in/hr0.0 mm/hr 0.00 in0.0 mm
03:47 AM 60.1°F15.6°C 29.3°F-1.5°C 31% 8.9 mph WSW14.3 kmh WSW 6.9 mph11.1 kmh -338605.1 mb 0.00 in0.0 mm 0.00 in/hr0.0 mm/hr 0.00 in0.0 mm
03:52 AM 59.7°F15.4°C 28.9°F-1.7°C 31% 8.1 mph W13.0 kmh W 6.0 mph9.7 kmh -338605.1 mb 0.00 in0.0 mm 0.00 in/hr0.0 mm/hr 0.00 in0.0 mm
03:57 AM 59.7°F15.4°C 27.3°F-2.6°C 29% 6.9 mph WSW11.1 kmh WSW 8.9 mph14.3 kmh -338605.1 mb 0.00 in0.0 mm 0.00 in/hr0.0 mm/hr 0.00 in0.0 mm
04:02 AM 59.7°F15.4°C 28.2°F-2.1°C 30% 6.9 mph WSW11.1 kmh WSW 10.1 mph16.3 kmh -338605.1 mb 0.00 in0.0 mm 0.00 in/hr0.0 mm/hr 0.00 in0.0 mm
04:07 AM 59.7°F15.4°C 28.2°F-2.1°C 30% 6.9 mph WSW11.1 kmh WSW 6.9 mph11.1 kmh -338605.1 mb 0.00 in0.0 mm 0.00 in/hr0.0 mm/hr 0.00 in0.0 mm
04:12 AM 59.9°F15.5°C 25.9°F-3.4°C 27% 8.1 mph WSW13.0 kmh WSW 11.0 mph17.7 kmh -338605.1 mb 0.00 in0.0 mm 0.00 in/hr0.0 mm/hr 0.00 in0.0 mm
04:17 AM 60.3°F15.7°C 25.2°F-3.8°C 26% 8.9 mph WSW14.3 kmh WSW 4.0 mph6.4 kmh -338605.1 mb 0.00 in0.0 mm 0.00 in/hr0.0 mm/hr 0.00 in0.0 mm
04:22 AM 59.7°F15.4°C 26.6°F-3.0°C 28% 8.1 mph WSW13.0 kmh WSW 6.9 mph11.1 kmh -338605.1 mb 0.00 in0.0 mm 0.00 in/hr0.0 mm/hr 0.00 in0.0 mm
04:27 AM 59.9°F15.5°C 25.0°F-3.9°C 26% 6.9 mph WNW11.1 kmh WNW 8.1 mph13.0 kmh -338605.1 mb 0.00 in0.0 mm 0.00 in/hr0.0 mm/hr 0.00 in0.0 mm
04:32 AM 60.4°F15.8°C 19.2°F-7.1°C 20% 8.1 mph W13.0 kmh W 8.9 mph14.3 kmh -338605.1 mb 0.00 in0.0 mm 0.00 in/hr0.0 mm/hr 0.00 in0.0 mm
04:37 AM 60.3°F15.7°C 20.1°F-6.6°C 21% 8.1 mph W13.0 kmh W 6.9 mph11.1 kmh -338605.1 mb 0.00 in0.0 mm 0.00 in/hr0.0 mm/hr 0.00 in0.0 mm
04:42 AM 60.3°F15.7°C 16.5°F-8.6°C 18% 8.9 mph W14.3 kmh W 11.0 mph17.7 kmh -338605.1 mb 0.00 in0.0 mm 0.00 in/hr0.0 mm/hr 0.00 in0.0 mm
04:47 AM 60.3°F15.7°C 16.5°F-8.6°C 18% 8.1 mph W13.0 kmh W 6.0 mph9.7 kmh -338605.1 mb 0.00 in0.0 mm 0.00 in/hr0.0 mm/hr 0.00 in0.0 mm
04:52 AM 60.1°F15.6°C 16.3°F-8.7°C 18% 6.9 mph W11.1 kmh W 4.9 mph7.9 kmh -338605.1 mb 0.00 in0.0 mm 0.00 in/hr0.0 mm/hr 0.00 in0.0 mm
04:57 AM 60.3°F15.7°C 15.3°F-9.3°C 17% 6.9 mph NW11.1 kmh NW 11.0 mph17.7 kmh -338605.1 mb 0.00 in0.0 mm 0.00 in/hr0.0 mm/hr 0.00 in0.0 mm
05:02 AM 60.3°F15.7°C 15.3°F-9.3°C 17% 8.1 mph WNW13.0 kmh WNW 10.1 mph16.3 kmh -338605.1 mb 0.00 in0.0 mm 0.00 in/hr0.0 mm/hr 0.00 in0.0 mm
05:07 AM 60.6°F15.9°C 15.6°F-9.1°C 17% 10.1 mph NW16.3 kmh NW 6.9 mph11.1 kmh -338605.1 mb 0.00 in0.0 mm 0.00 in/hr0.0 mm/hr 0.00 in0.0 mm
05:12 AM 60.6°F15.9°C 15.6°F-9.1°C 17% 10.1 mph NW16.3 kmh NW 8.9 mph14.3 kmh -338605.1 mb 0.00 in0.0 mm 0.00 in/hr0.0 mm/hr 0.00 in0.0 mm
05:17 AM 60.6°F15.9°C 15.6°F-9.1°C 17% 8.9 mph NNW14.3 kmh NNW 12.1 mph19.5 kmh -338605.1 mb 0.00 in0.0 mm 0.00 in/hr0.0 mm/hr 0.00 in0.0 mm
05:22 AM 60.8°F16.0°C 15.6°F-9.1°C 17% 8.9 mph NW14.3 kmh NW 6.9 mph11.1 kmh -338605.1 mb 0.00 in0.0 mm 0.00 in/hr0.0 mm/hr 0.00 in0.0 mm
05:27 AM 60.6°F15.9°C 14.2°F-9.9°C 16% 8.1 mph NW13.0 kmh NW 8.1 mph13.0 kmh -338605.1 mb 0.00 in0.0 mm 0.00 in/hr0.0 mm/hr 0.00 in0.0 mm
05:32 AM 60.6°F15.9°C 14.2°F-9.9°C 16% 6.9 mph NW11.1 kmh NW 6.9 mph11.1 kmh -338605.1 mb 0.00 in0.0 mm 0.00 in/hr0.0 mm/hr 0.00 in0.0 mm
05:37 AM 60.6°F15.9°C 14.2°F-9.9°C 16% 8.1 mph NNW13.0 kmh NNW 8.9 mph14.3 kmh -338605.1 mb 0.00 in0.0 mm 0.00 in/hr0.0 mm/hr 0.00 in0.0 mm
05:42 AM 60.1°F15.6°C 15.1°F-9.4°C 17% 8.1 mph N13.0 kmh N 8.1 mph13.0 kmh -338605.1 mb 0.00 in0.0 mm 0.00 in/hr0.0 mm/hr 0.00 in0.0 mm
05:47 AM 59.4°F15.2°C 15.8°F-9.0°C 18% 8.1 mph NW13.0 kmh NW 8.1 mph13.0 kmh -338605.1 mb 0.00 in0.0 mm 0.00 in/hr0.0 mm/hr 0.00 in0.0 mm
05:52 AM 58.8°F14.9°C 16.7°F-8.5°C 19% 8.1 mph NW13.0 kmh NW 10.1 mph16.3 kmh -338605.1 mb 0.00 in0.0 mm 0.00 in/hr0.0 mm/hr 0.00 in0.0 mm
05:57 AM 58.6°F14.8°C 16.5°F-8.6°C 19% 8.9 mph NW14.3 kmh NW 10.1 mph16.3 kmh -338605.1 mb 0.00 in0.0 mm 0.00 in/hr0.0 mm/hr 0.00 in0.0 mm
06:02 AM 59.0°F15.0°C 15.6°F-9.1°C 18% 10.1 mph WNW16.3 kmh WNW 10.1 mph16.3 kmh -338605.1 mb 0.00 in0.0 mm 0.00 in/hr0.0 mm/hr 0.00 in0.0 mm
06:07 AM 59.4°F15.2°C 15.8°F-9.0°C 18% 12.1 mph NW19.5 kmh NW 11.0 mph17.7 kmh -338605.1 mb 0.00 in0.0 mm 0.00 in/hr0.0 mm/hr 0.00 in0.0 mm
06:12 AM 59.5°F15.3°C 16.0°F-8.9°C 18% 12.1 mph NW19.5 kmh NW 13.0 mph20.9 kmh -338605.1 mb 0.00 in0.0 mm 0.00 in/hr0.0 mm/hr 0.00 in0.0 mm
06:17 AM 59.7°F15.4°C 16.2°F-8.8°C 18% 12.1 mph NW19.5 kmh NW 11.0 mph17.7 kmh -338605.1 mb 0.00 in0.0 mm 0.00 in/hr0.0 mm/hr 0.00 in0.0 mm
06:22 AM 60.3°F15.7°C 15.3°F-9.3°C 17% 12.1 mph NW19.5 kmh NW 12.1 mph19.5 kmh -338605.1 mb 0.00 in0.0 mm 0.00 in/hr0.0 mm/hr 0.00 in0.0 mm
06:27 AM 60.4°F15.8°C 15.4°F-9.2°C 17% 13.0 mph NW20.9 kmh NW 8.1 mph13.0 kmh -338605.1 mb 0.00 in0.0 mm 0.00 in/hr0.0 mm/hr 0.00 in0.0 mm
06:32 AM 60.6°F15.9°C 15.6°F-9.1°C 17% 12.1 mph NW19.5 kmh NW 8.1 mph13.0 kmh -338605.1 mb 0.00 in0.0 mm 0.00 in/hr0.0 mm/hr 0.00 in0.0 mm
06:37 AM 60.6°F15.9°C 15.6°F-9.1°C 17% 8.9 mph NW14.3 kmh NW 4.9 mph7.9 kmh -338605.1 mb 0.00 in0.0 mm 0.00 in/hr0.0 mm/hr 0.00 in0.0 mm
06:42 AM 60.6°F15.9°C 16.9°F-8.4°C 18% 10.1 mph NNW16.3 kmh NNW 13.0 mph20.9 kmh -338605.1 mb 0.00 in0.0 mm 0.00 in/hr0.0 mm/hr 0.00 in0.0 mm
06:47 AM 61.2°F16.2°C 16.0°F-8.9°C 17% 12.1 mph NNW19.5 kmh NNW 11.0 mph17.7 kmh -338605.1 mb 0.00 in0.0 mm 0.00 in/hr0.0 mm/hr 0.00 in0.0 mm
06:52 AM 61.3°F16.3°C 17.4°F-8.1°C 18% 12.1 mph NW19.5 kmh NW 12.1 mph19.5 kmh -338605.1 mb 0.00 in0.0 mm 0.00 in/hr0.0 mm/hr 0.00 in0.0 mm
06:57 AM 61.5°F16.4°C 17.6°F-8.0°C 18% 11.0 mph NNW17.7 kmh NNW 8.1 mph13.0 kmh -338605.1 mb 0.00 in0.0 mm 0.00 in/hr0.0 mm/hr 0.00 in0.0 mm
07:02 AM 61.5°F16.4°C 17.6°F-8.0°C 18% 10.1 mph NNW16.3 kmh NNW 6.0 mph9.7 kmh -338605.1 mb 0.00 in0.0 mm 0.00 in/hr0.0 mm/hr 0.00 in0.0 mm
07:07 AM 61.5°F16.4°C 17.6°F-8.0°C 18% 8.9 mph NW14.3 kmh NW 8.1 mph13.0 kmh -338605.1 mb 0.00 in0.0 mm 0.00 in/hr0.0 mm/hr 0.00 in0.0 mm
07:12 AM 61.9°F16.6°C 18.0°F-7.8°C 18% 10.1 mph NNW16.3 kmh NNW 10.1 mph16.3 kmh -338605.1 mb 0.00 in0.0 mm 0.00 in/hr0.0 mm/hr 0.00 in0.0 mm
07:17 AM 62.2°F16.8°C 18.1°F-7.7°C 18% 8.9 mph NNW14.3 kmh NNW 6.0 mph9.7 kmh -338605.1 mb 0.00 in0.0 mm 0.00 in/hr0.0 mm/hr 0.00 in0.0 mm
07:22 AM 62.4°F16.9°C 17.1°F-8.3°C 17% 8.9 mph NW14.3 kmh NW 6.9 mph11.1 kmh -338605.1 mb 0.00 in0.0 mm 0.00 in/hr0.0 mm/hr 0.00 in0.0 mm
07:27 AM 62.6°F17.0°C 17.2°F-8.2°C 17% 8.1 mph NNW13.0 kmh NNW 8.9 mph14.3 kmh -338605.1 mb 0.00 in0.0 mm 0.00 in/hr0.0 mm/hr 0.00 in0.0 mm
07:32 AM 62.8°F17.1°C 17.2°F-8.2°C 17% 8.1 mph NNW13.0 kmh NNW 11.0 mph17.7 kmh -338605.1 mb 0.00 in0.0 mm 0.00 in/hr0.0 mm/hr 0.00 in0.0 mm
07:37 AM 63.1°F17.3°C 17.6°F-8.0°C 17% 10.1 mph N16.3 kmh N 6.9 mph11.1 kmh -338605.1 mb 0.00 in0.0 mm 0.00 in/hr0.0 mm/hr 0.00 in0.0 mm
07:42 AM 63.7°F17.6°C 18.0°F-7.8°C 17% 10.1 mph NNW16.3 kmh NNW 11.0 mph17.7 kmh -338605.1 mb 0.00 in0.0 mm 0.00 in/hr0.0 mm/hr 0.00 in0.0 mm
07:47 AM 63.9°F17.7°C 18.1°F-7.7°C 17% 10.1 mph 16.3 kmh 12.1 mph19.5 kmh -338605.1 mb 0.00 in0.0 mm 0.00 in/hr0.0 mm/hr 0.00 in0.0 mm
07:52 AM 64.2°F17.9°C 18.5°F-7.5°C 17% 10.1 mph NNW16.3 kmh NNW 8.9 mph14.3 kmh -338605.1 mb 0.00 in0.0 mm 0.00 in/hr0.0 mm/hr 0.00 in0.0 mm
07:57 AM 64.6°F18.1°C 18.9°F-7.3°C 17% 10.1 mph N16.3 kmh N 12.1 mph19.5 kmh -338605.1 mb 0.00 in0.0 mm 0.00 in/hr0.0 mm/hr 0.00 in0.0 mm
08:02 AM 64.8°F18.2°C 17.4°F-8.1°C 16% 10.1 mph NW16.3 kmh NW 10.1 mph16.3 kmh -338605.1 mb 0.00 in0.0 mm 0.00 in/hr0.0 mm/hr 0.00 in0.0 mm
08:07 AM 65.3°F18.5°C 18.0°F-7.8°C 16% 11.0 mph NNW17.7 kmh NNW 12.1 mph19.5 kmh -338605.1 mb 0.00 in0.0 mm 0.00 in/hr0.0 mm/hr 0.00 in0.0 mm
08:12 AM 65.7°F18.7°C 18.3°F-7.6°C 16% 11.0 mph 17.7 kmh 11.0 mph17.7 kmh -338605.1 mb 0.00 in0.0 mm 0.00 in/hr0.0 mm/hr 0.00 in0.0 mm
08:17 AM 65.7°F18.7°C 18.3°F-7.6°C 16% 13.0 mph NW20.9 kmh NW 10.1 mph16.3 kmh -338605.1 mb 0.00 in0.0 mm 0.00 in/hr0.0 mm/hr 0.00 in0.0 mm
08:22 AM 66.2°F19.0°C 17.2°F-8.2°C 15% 14.1 mph N22.7 kmh N 14.1 mph22.7 kmh -338605.1 mb 0.00 in0.0 mm 0.00 in/hr0.0 mm/hr 0.00 in0.0 mm
08:27 AM 66.4°F19.1°C 18.9°F-7.3°C 16% 12.1 mph N19.5 kmh N 4.9 mph7.9 kmh -338605.1 mb 0.00 in0.0 mm 0.00 in/hr0.0 mm/hr 0.00 in0.0 mm
08:32 AM 66.9°F19.4°C 17.8°F-7.9°C 15% 11.0 mph N17.7 kmh N 12.1 mph19.5 kmh -338605.1 mb 0.00 in0.0 mm 0.00 in/hr0.0 mm/hr 0.00 in0.0 mm
08:37 AM 67.1°F19.5°C 18.0°F-7.8°C 15% 10.1 mph N16.3 kmh N 15.0 mph24.1 kmh -338605.1 mb 0.00 in0.0 mm 0.00 in/hr0.0 mm/hr 0.00 in0.0 mm
08:42 AM 67.5°F19.7°C 18.1°F-7.7°C 15% 10.1 mph NNW16.3 kmh NNW 14.1 mph22.7 kmh -338605.1 mb 0.00 in0.0 mm 0.00 in/hr0.0 mm/hr 0.00 in0.0 mm
08:47 AM 67.3°F19.6°C 18.0°F-7.8°C 15% 10.1 mph NW16.3 kmh NW 10.1 mph16.3 kmh -338605.1 mb 0.00 in0.0 mm 0.00 in/hr0.0 mm/hr 0.00 in0.0 mm
08:52 AM 67.5°F19.7°C 16.5°F-8.6°C 14% 12.1 mph NNW19.5 kmh NNW 12.1 mph19.5 kmh -338605.1 mb 0.00 in0.0 mm 0.00 in/hr0.0 mm/hr 0.00 in0.0 mm
08:57 AM 68.2°F20.1°C 18.7°F-7.4°C 15% 10.1 mph N16.3 kmh N 4.0 mph6.4 kmh -338605.1 mb 0.00 in0.0 mm 0.00 in/hr0.0 mm/hr 0.00 in0.0 mm
09:02 AM 68.5°F20.3°C 17.4°F-8.1°C 14% 10.1 mph NW16.3 kmh NW 12.1 mph19.5 kmh -338605.1 mb 0.00 in0.0 mm 0.00 in/hr0.0 mm/hr 0.00 in0.0 mm
09:07 AM 68.5°F20.3°C 17.4°F-8.1°C 14% 10.1 mph NNW16.3 kmh NNW 16.1 mph25.9 kmh -338605.1 mb 0.00 in0.0 mm 0.00 in/hr0.0 mm/hr 0.00 in0.0 mm
09:12 AM 68.4°F20.2°C 17.2°F-8.2°C 14% 12.1 mph NNE19.5 kmh NNE 11.0 mph17.7 kmh -338605.1 mb 0.00 in0.0 mm 0.00 in/hr0.0 mm/hr 0.00 in0.0 mm
09:22 AM 68.9°F20.5°C 17.8°F-7.9°C 14% 10.1 mph N16.3 kmh N 6.0 mph9.7 kmh -338605.1 mb 0.00 in0.0 mm 0.00 in/hr0.0 mm/hr 0.00 in0.0 mm
09:27 AM 69.4°F20.8°C 18.1°F-7.7°C 14% 8.9 mph N14.3 kmh N 8.9 mph14.3 kmh -338605.1 mb 0.00 in0.0 mm 0.00 in/hr0.0 mm/hr 0.00 in0.0 mm
09:32 AM 70.0°F21.1°C 18.5°F-7.5°C 14% 8.1 mph N13.0 kmh N 4.9 mph7.9 kmh -338605.1 mb 0.00 in0.0 mm 0.00 in/hr0.0 mm/hr 0.00 in0.0 mm
09:37 AM 69.6°F20.9°C 18.3°F-7.6°C 14% 10.1 mph NNW16.3 kmh NNW 13.0 mph20.9 kmh -338605.1 mb 0.00 in0.0 mm 0.00 in/hr0.0 mm/hr 0.00 in0.0 mm
09:42 AM 69.4°F20.8°C 18.1°F-7.7°C 14% 10.1 mph WNW16.3 kmh WNW 6.9 mph11.1 kmh -338605.1 mb 0.00 in0.0 mm 0.00 in/hr0.0 mm/hr 0.00 in0.0 mm
09:47 AM 70.3°F21.3°C 18.9°F-7.3°C 14% 8.9 mph NNE14.3 kmh NNE 8.9 mph14.3 kmh -338605.1 mb 0.00 in0.0 mm 0.00 in/hr0.0 mm/hr 0.00 in0.0 mm
09:52 AM 70.3°F21.3°C 18.9°F-7.3°C 14% 10.1 mph NE16.3 kmh NE 10.1 mph16.3 kmh -338605.1 mb 0.00 in0.0 mm 0.00 in/hr0.0 mm/hr 0.00 in0.0 mm
09:57 AM 71.2°F21.8°C 19.6°F-6.9°C 14% 10.1 mph NNE16.3 kmh NNE 4.9 mph7.9 kmh -338605.1 mb 0.00 in0.0 mm 0.00 in/hr0.0 mm/hr 0.00 in0.0 mm
10:02 AM 72.5°F22.5°C 18.9°F-7.3°C 13% 6.9 mph NE11.1 kmh NE 2.0 mph3.2 kmh -338605.1 mb 0.00 in0.0 mm 0.00 in/hr0.0 mm/hr 0.00 in0.0 mm
10:07 AM 72.7°F22.6°C 17.1°F-8.3°C 12% 4.0 mph N6.4 kmh N 2.9 mph4.7 kmh -338605.1 mb 0.00 in0.0 mm 0.00 in/hr0.0 mm/hr 0.00 in0.0 mm
10:12 AM 72.5°F22.5°C 18.9°F-7.3°C 13% 2.9 mph S4.7 kmh S 4.0 mph6.4 kmh -338605.1 mb 0.00 in0.0 mm 0.00 in/hr0.0 mm/hr 0.00 in0.0 mm
10:17 AM 73.2°F22.9°C 19.4°F-7.0°C 13% 4.0 mph ENE6.4 kmh ENE 6.9 mph11.1 kmh -338605.1 mb 0.00 in0.0 mm 0.00 in/hr0.0 mm/hr 0.00 in0.0 mm
10:22 AM 72.7°F22.6°C 19.0°F-7.2°C 13% 6.0 mph E9.7 kmh E 11.0 mph17.7 kmh -338605.1 mb 0.00 in0.0 mm 0.00 in/hr0.0 mm/hr 0.00 in0.0 mm
10:27 AM 73.0°F22.8°C 19.2°F-7.1°C 13% 4.9 mph NE7.9 kmh NE 6.0 mph9.7 kmh -338605.1 mb 0.00 in0.0 mm 0.00 in/hr0.0 mm/hr 0.00 in0.0 mm
10:32 AM 73.9°F23.3°C 18.1°F-7.7°C 12% 6.0 mph ENE9.7 kmh ENE 8.1 mph13.0 kmh -338605.1 mb 0.00 in0.0 mm 0.00 in/hr0.0 mm/hr 0.00 in0.0 mm
10:37 AM 73.9°F23.3°C 18.1°F-7.7°C 12% 6.9 mph E11.1 kmh E 10.1 mph16.3 kmh -338605.1 mb 0.00 in0.0 mm 0.00 in/hr0.0 mm/hr 0.00 in0.0 mm
10:42 AM 73.9°F23.3°C 18.1°F-7.7°C 12% 6.0 mph NE9.7 kmh NE 0.9 mph1.4 kmh -338605.1 mb 0.00 in0.0 mm 0.00 in/hr0.0 mm/hr 0.00 in0.0 mm
10:47 AM 73.8°F23.2°C 19.8°F-6.8°C 13% 4.0 mph NNE6.4 kmh NNE 4.9 mph7.9 kmh -338605.1 mb 0.00 in0.0 mm 0.00 in/hr0.0 mm/hr 0.00 in0.0 mm
10:52 AM 75.4°F24.1°C 19.2°F-7.1°C 12% 6.9 mph ESE11.1 kmh ESE 4.0 mph6.4 kmh -338605.1 mb 0.00 in0.0 mm 0.00 in/hr0.0 mm/hr 0.00 in0.0 mm
10:57 AM 75.6°F24.2°C 19.4°F-7.0°C 12% 8.1 mph E13.0 kmh E 4.9 mph7.9 kmh -338605.1 mb 0.00 in0.0 mm 0.00 in/hr0.0 mm/hr 0.00 in0.0 mm
11:02 AM 74.5°F23.6°C 18.5°F-7.5°C 12% 4.9 mph E7.9 kmh E 4.9 mph7.9 kmh -338605.1 mb 0.00 in0.0 mm 0.00 in/hr0.0 mm/hr 0.00 in0.0 mm
11:12 AM 75.0°F23.9°C 16.9°F-8.4°C 11% 4.9 mph NE7.9 kmh NE 10.1 mph16.3 kmh -338605.1 mb 0.00 in0.0 mm 0.00 in/hr0.0 mm/hr 0.00 in0.0 mm
11:17 AM 74.7°F23.7°C 16.7°F-8.5°C 11% 6.0 mph NE9.7 kmh NE 2.9 mph4.7 kmh -338605.1 mb 0.00 in0.0 mm 0.00 in/hr0.0 mm/hr 0.00 in0.0 mm
11:22 AM 75.4°F24.1°C 19.2°F-7.1°C 12% 4.0 mph SE6.4 kmh SE 4.0 mph6.4 kmh -338605.1 mb 0.00 in0.0 mm 0.00 in/hr0.0 mm/hr 0.00 in0.0 mm
11:27 AM 75.7°F24.3°C 17.4°F-8.1°C 11% 4.0 mph E6.4 kmh E 2.9 mph4.7 kmh -338605.1 mb 0.00 in0.0 mm 0.00 in/hr0.0 mm/hr 0.00 in0.0 mm
11:32 AM 76.5°F24.7°C 18.0°F-7.8°C 11% 4.9 mph ESE7.9 kmh ESE 2.9 mph4.7 kmh -338605.1 mb 0.00 in0.0 mm 0.00 in/hr0.0 mm/hr 0.00 in0.0 mm
11:37 AM 77.4°F25.2°C 18.7°F-7.4°C 11% 6.0 mph ESE9.7 kmh ESE 4.0 mph6.4 kmh -338605.1 mb 0.00 in0.0 mm 0.00 in/hr0.0 mm/hr 0.00 in0.0 mm
11:42 AM 75.4°F24.1°C 17.2°F-8.2°C 11% 4.0 mph NE6.4 kmh NE 4.9 mph7.9 kmh -338605.1 mb 0.00 in0.0 mm 0.00 in/hr0.0 mm/hr 0.00 in0.0 mm
11:47 AM 74.7°F23.7°C 16.7°F-8.5°C 11% 2.0 mph NE3.2 kmh NE 2.9 mph4.7 kmh -338605.1 mb 0.00 in0.0 mm 0.00 in/hr0.0 mm/hr 0.00 in0.0 mm
11:52 AM 74.8°F23.8°C 16.9°F-8.4°C 11% 2.0 mph NNE3.2 kmh NNE 0.9 mph1.4 kmh -338605.1 mb 0.00 in0.0 mm 0.00 in/hr0.0 mm/hr 0.00 in0.0 mm
11:57 AM 75.9°F24.4°C 15.4°F-9.2°C 10% 2.0 mph ENE3.2 kmh ENE 4.0 mph6.4 kmh -338605.1 mb 0.00 in0.0 mm 0.00 in/hr0.0 mm/hr 0.00 in0.0 mm
12:07 PM 77.7°F25.4°C 16.9°F-8.4°C 10% 4.0 mph E6.4 kmh E 2.9 mph4.7 kmh -338605.1 mb 0.00 in0.0 mm 0.00 in/hr0.0 mm/hr 0.00 in0.0 mm
12:12 PM 76.8°F24.9°C 16.2°F-8.8°C 10% 4.9 mph E7.9 kmh E 6.0 mph9.7 kmh -338605.1 mb 0.00 in0.0 mm 0.00 in/hr0.0 mm/hr 0.00 in0.0 mm
12:17 PM 77.4°F25.2°C 16.5°F-8.6°C 10% 6.0 mph ENE9.7 kmh ENE 4.9 mph7.9 kmh -338605.1 mb 0.00 in0.0 mm 0.00 in/hr0.0 mm/hr 0.00 in0.0 mm
12:22 PM 77.0°F25.0°C 16.3°F-8.7°C 10% 6.0 mph ENE9.7 kmh ENE 0.9 mph1.4 kmh -338605.1 mb 0.00 in0.0 mm 0.00 in/hr0.0 mm/hr 0.00 in0.0 mm
12:27 PM 77.2°F25.1°C 16.3°F-8.7°C 10% 4.0 mph NW6.4 kmh NW 0.9 mph1.4 kmh -338605.1 mb 0.00 in0.0 mm 0.00 in/hr0.0 mm/hr 0.00 in0.0 mm
12:32 PM 77.4°F25.2°C 16.5°F-8.6°C 10% 2.9 mph N4.7 kmh N -- -338605.1 mb 0.00 in0.0 mm 0.00 in/hr0.0 mm/hr 0.00 in0.0 mm
12:37 PM 78.1°F25.6°C 17.1°F-8.3°C 10% 2.9 mph E4.7 kmh E 2.9 mph4.7 kmh -338605.1 mb 0.00 in0.0 mm 0.00 in/hr0.0 mm/hr 0.00 in0.0 mm
12:42 PM 78.3°F25.7°C 17.2°F-8.2°C 10% 4.0 mph S6.4 kmh S 4.0 mph6.4 kmh -338605.1 mb 0.00 in0.0 mm 0.00 in/hr0.0 mm/hr 0.00 in0.0 mm
12:47 PM 78.4°F25.8°C 17.4°F-8.1°C 10% 4.0 mph E6.4 kmh E 4.9 mph7.9 kmh -338605.1 mb 0.00 in0.0 mm 0.00 in/hr0.0 mm/hr 0.00 in0.0 mm
12:57 PM 79.0°F26.1°C 15.3°F-9.3°C 9% 4.0 mph ENE6.4 kmh ENE 8.9 mph14.3 kmh -338605.1 mb 0.00 in0.0 mm 0.00 in/hr0.0 mm/hr 0.00 in0.0 mm
01:02 PM 79.2°F26.2°C 18.0°F-7.8°C 10% 6.0 mph E9.7 kmh E 8.1 mph13.0 kmh -338605.1 mb 0.00 in0.0 mm 0.00 in/hr0.0 mm/hr 0.00 in0.0 mm
01:07 PM 79.2°F26.2°C 15.4°F-9.2°C 9% 6.9 mph ESE11.1 kmh ESE 4.9 mph7.9 kmh -338605.1 mb 0.00 in0.0 mm 0.00 in/hr0.0 mm/hr 0.00 in0.0 mm
01:12 PM 79.5°F26.4°C 15.8°F-9.0°C 9% 6.0 mph E9.7 kmh E 8.9 mph14.3 kmh -338605.1 mb 0.00 in0.0 mm 0.00 in/hr0.0 mm/hr 0.00 in0.0 mm
01:17 PM 80.1°F26.7°C 16.2°F-8.8°C 9% 6.9 mph E11.1 kmh E 4.0 mph6.4 kmh -338605.1 mb 0.00 in0.0 mm 0.00 in/hr0.0 mm/hr 0.00 in0.0 mm
01:22 PM 79.3°F26.3°C 15.6°F-9.1°C 9% 8.1 mph E13.0 kmh E 6.9 mph11.1 kmh -338605.1 mb 0.00 in0.0 mm 0.00 in/hr0.0 mm/hr 0.00 in0.0 mm
01:27 PM 79.0°F26.1°C 15.3°F-9.3°C 9% 4.9 mph E7.9 kmh E -- -338605.1 mb 0.00 in0.0 mm 0.00 in/hr0.0 mm/hr 0.00 in0.0 mm
01:32 PM 79.0°F26.1°C 15.3°F-9.3°C 9% 2.9 mph SSE4.7 kmh SSE 6.0 mph9.7 kmh -338605.1 mb 0.00 in0.0 mm 0.00 in/hr0.0 mm/hr 0.00 in0.0 mm
01:37 PM 79.5°F26.4°C 15.8°F-9.0°C 9% 2.0 mph ENE3.2 kmh ENE 0.9 mph1.4 kmh -338605.1 mb 0.00 in0.0 mm 0.00 in/hr0.0 mm/hr 0.00 in0.0 mm
01:42 PM 80.2°F26.8°C 16.3°F-8.7°C 9% 4.0 mph ESE6.4 kmh ESE 11.0 mph17.7 kmh -338605.1 mb 0.00 in0.0 mm 0.00 in/hr0.0 mm/hr 0.00 in0.0 mm
01:47 PM 80.2°F26.8°C 13.6°F-10.2°C 8% 6.9 mph ENE11.1 kmh ENE 4.0 mph6.4 kmh -338605.1 mb 0.00 in0.0 mm 0.00 in/hr0.0 mm/hr 0.00 in0.0 mm
01:52 PM 79.9°F26.6°C 16.0°F-8.9°C 9% 6.0 mph NE9.7 kmh NE 4.0 mph6.4 kmh -338605.1 mb 0.00 in0.0 mm 0.00 in/hr0.0 mm/hr 0.00 in0.0 mm
01:57 PM 79.3°F26.3°C 12.9°F-10.6°C 8% 6.0 mph N9.7 kmh N 8.9 mph14.3 kmh -338605.1 mb 0.00 in0.0 mm 0.00 in/hr0.0 mm/hr 0.00 in0.0 mm
02:02 PM 78.1°F25.6°C 14.7°F-9.6°C 9% 6.0 mph N9.7 kmh N 2.0 mph3.2 kmh -338605.1 mb 0.00 in0.0 mm 0.00 in/hr0.0 mm/hr 0.00 in0.0 mm
02:07 PM 77.7°F25.4°C 14.4°F-9.8°C 9% 4.0 mph N6.4 kmh N 4.9 mph7.9 kmh -338605.1 mb 0.00 in0.0 mm 0.00 in/hr0.0 mm/hr 0.00 in0.0 mm
02:12 PM 77.7°F25.4°C 14.4°F-9.8°C 9% 2.9 mph N4.7 kmh N 4.9 mph7.9 kmh -338605.1 mb 0.00 in0.0 mm 0.00 in/hr0.0 mm/hr 0.00 in0.0 mm
02:17 PM 79.9°F26.6°C 13.3°F-10.4°C 8% 4.0 mph N6.4 kmh N 4.0 mph6.4 kmh -338605.1 mb 0.00 in0.0 mm 0.00 in/hr0.0 mm/hr 0.00 in0.0 mm
02:22 PM 79.2°F26.2°C 12.7°F-10.7°C 8% 6.0 mph NNE9.7 kmh NNE 2.0 mph3.2 kmh -338605.1 mb 0.00 in0.0 mm 0.00 in/hr0.0 mm/hr 0.00 in0.0 mm
02:27 PM 79.3°F26.3°C 12.9°F-10.6°C 8% 2.9 mph NNE4.7 kmh NNE 2.9 mph4.7 kmh -338605.1 mb 0.00 in0.0 mm 0.00 in/hr0.0 mm/hr 0.00 in0.0 mm
02:32 PM 78.1°F25.6°C 12.0°F-11.1°C 8% 2.9 mph NW4.7 kmh NW 2.9 mph4.7 kmh -338605.1 mb 0.00 in0.0 mm 0.00 in/hr0.0 mm/hr 0.00 in0.0 mm
02:37 PM 78.3°F25.7°C 14.7°F-9.6°C 9% 4.0 mph WNW6.4 kmh WNW 6.0 mph9.7 kmh -338605.1 mb 0.00 in0.0 mm 0.00 in/hr0.0 mm/hr 0.00 in0.0 mm
02:42 PM 79.3°F26.3°C 15.6°F-9.1°C 9% 2.9 mph WNW4.7 kmh WNW -- -338605.1 mb 0.00 in0.0 mm 0.00 in/hr0.0 mm/hr 0.00 in0.0 mm
02:47 PM 80.1°F26.7°C 13.5°F-10.3°C 8% 4.0 mph NNE6.4 kmh NNE 6.9 mph11.1 kmh -338605.1 mb 0.00 in0.0 mm 0.00 in/hr0.0 mm/hr 0.00 in0.0 mm
02:52 PM 79.5°F26.4°C 13.1°F-10.5°C 8% 8.1 mph N13.0 kmh N 4.0 mph6.4 kmh -338605.1 mb 0.00 in0.0 mm 0.00 in/hr0.0 mm/hr 0.00 in0.0 mm
02:57 PM 79.7°F26.5°C 13.1°F-10.5°C 8% 6.9 mph NE11.1 kmh NE 4.9 mph7.9 kmh -338605.1 mb 0.00 in0.0 mm 0.00 in/hr0.0 mm/hr 0.00 in0.0 mm
03:02 PM 79.9°F26.6°C 13.3°F-10.4°C 8% 4.0 mph NNE6.4 kmh NNE 8.1 mph13.0 kmh -338605.1 mb 0.00 in0.0 mm 0.00 in/hr0.0 mm/hr 0.00 in0.0 mm
03:07 PM 80.2°F26.8°C 10.6°F-11.9°C 7% 4.0 mph NNE6.4 kmh NNE 2.9 mph4.7 kmh -338605.1 mb 0.00 in0.0 mm 0.00 in/hr0.0 mm/hr 0.00 in0.0 mm
03:12 PM 80.1°F26.7°C 13.5°F-10.3°C 8% 4.0 mph NW6.4 kmh NW 2.9 mph4.7 kmh -338605.1 mb 0.00 in0.0 mm 0.00 in/hr0.0 mm/hr 0.00 in0.0 mm
03:17 PM 81.1°F27.3°C 14.2°F-9.9°C 8% 4.0 mph S6.4 kmh S 4.0 mph6.4 kmh -338605.1 mb 0.00 in0.0 mm 0.00 in/hr0.0 mm/hr 0.00 in0.0 mm
03:22 PM 81.1°F27.3°C 14.2°F-9.9°C 8% 4.0 mph S6.4 kmh S 4.9 mph7.9 kmh -338605.1 mb 0.00 in0.0 mm 0.00 in/hr0.0 mm/hr 0.00 in0.0 mm
03:27 PM 80.6°F27.0°C 13.8°F-10.1°C 8% 2.9 mph S4.7 kmh S 0.9 mph1.4 kmh -338605.1 mb 0.00 in0.0 mm 0.00 in/hr0.0 mm/hr 0.00 in0.0 mm
03:32 PM 81.9°F27.7°C 11.8°F-11.2°C 7% 4.0 mph SE6.4 kmh SE 8.1 mph13.0 kmh -338605.1 mb 0.00 in0.0 mm 0.00 in/hr0.0 mm/hr 0.00 in0.0 mm
03:37 PM 82.0°F27.8°C 11.8°F-11.2°C 7% 8.1 mph SE13.0 kmh SE 8.1 mph13.0 kmh -338605.1 mb 0.00 in0.0 mm 0.00 in/hr0.0 mm/hr 0.00 in0.0 mm
03:42 PM 81.9°F27.7°C 11.8°F-11.2°C 7% 8.1 mph S13.0 kmh S 2.0 mph3.2 kmh -338605.1 mb 0.00 in0.0 mm 0.00 in/hr0.0 mm/hr 0.00 in0.0 mm
03:47 PM 81.3°F27.4°C 7.9°F-13.4°C 6% 4.9 mph NNE7.9 kmh NNE 0.9 mph1.4 kmh -338605.1 mb 0.00 in0.0 mm 0.00 in/hr0.0 mm/hr 0.00 in0.0 mm
03:52 PM 81.3°F27.4°C 11.3°F-11.5°C 7% 2.9 mph E4.7 kmh E 0.9 mph1.4 kmh -338605.1 mb 0.00 in0.0 mm 0.00 in/hr0.0 mm/hr 0.00 in0.0 mm
03:57 PM 81.5°F27.5°C 11.5°F-11.4°C 7% 2.0 mph E3.2 kmh E -- -338605.1 mb 0.00 in0.0 mm 0.00 in/hr0.0 mm/hr 0.00 in0.0 mm
04:02 PM 81.1°F27.3°C 11.3°F-11.5°C 7% 0.9 mph E1.4 kmh E -- -338605.1 mb 0.00 in0.0 mm 0.00 in/hr0.0 mm/hr 0.00 in0.0 mm
04:07 PM 81.3°F27.4°C 7.9°F-13.4°C 6% 2.9 mph N4.7 kmh N 6.0 mph9.7 kmh -338605.1 mb 0.00 in0.0 mm 0.00 in/hr0.0 mm/hr 0.00 in0.0 mm
04:12 PM 80.2°F26.8°C 7.2°F-13.8°C 6% 4.9 mph N7.9 kmh N 4.9 mph7.9 kmh -338605.1 mb 0.00 in0.0 mm 0.00 in/hr0.0 mm/hr 0.00 in0.0 mm
04:17 PM 80.2°F26.8°C 10.6°F-11.9°C 7% 4.0 mph NW6.4 kmh NW 2.0 mph3.2 kmh -338605.1 mb 0.00 in0.0 mm 0.00 in/hr0.0 mm/hr 0.00 in0.0 mm
04:22 PM 80.6°F27.0°C 10.8°F-11.8°C 7% 0.9 mph NW1.4 kmh NW 6.9 mph11.1 kmh -338605.1 mb 0.00 in0.0 mm 0.00 in/hr0.0 mm/hr 0.00 in0.0 mm
04:27 PM 80.6°F27.0°C 10.8°F-11.8°C 7% 4.0 mph W6.4 kmh W 6.9 mph11.1 kmh -338605.1 mb 0.00 in0.0 mm 0.00 in/hr0.0 mm/hr 0.00 in0.0 mm
04:32 PM 80.2°F26.8°C 10.6°F-11.9°C 7% 4.9 mph W7.9 kmh W 0.9 mph1.4 kmh -338605.1 mb 0.00 in0.0 mm 0.00 in/hr0.0 mm/hr 0.00 in0.0 mm
04:37 PM 80.4°F26.9°C 10.8°F-11.8°C 7% 2.0 mph W3.2 kmh W 2.9 mph4.7 kmh -338605.1 mb 0.00 in0.0 mm 0.00 in/hr0.0 mm/hr 0.00 in0.0 mm
04:42 PM 80.8°F27.1°C 10.9°F-11.7°C 7% 2.0 mph E3.2 kmh E 6.0 mph9.7 kmh -338605.1 mb 0.00 in0.0 mm 0.00 in/hr0.0 mm/hr 0.00 in0.0 mm
04:47 PM 81.3°F27.4°C 11.3°F-11.5°C 7% 4.9 mph SSE7.9 kmh SSE 8.1 mph13.0 kmh -338605.1 mb 0.00 in0.0 mm 0.00 in/hr0.0 mm/hr 0.00 in0.0 mm
04:52 PM 81.3°F27.4°C 11.3°F-11.5°C 7% 6.0 mph SE9.7 kmh SE 2.9 mph4.7 kmh -338605.1 mb 0.00 in0.0 mm 0.00 in/hr0.0 mm/hr 0.00 in0.0 mm
04:57 PM 81.3°F27.4°C 11.3°F-11.5°C 7% 2.9 mph ENE4.7 kmh ENE 0.9 mph1.4 kmh -338605.1 mb 0.00 in0.0 mm 0.00 in/hr0.0 mm/hr 0.00 in0.0 mm
05:02 PM 81.9°F27.7°C 4.3°F-15.4°C 5% 4.0 mph NE6.4 kmh NE 4.9 mph7.9 kmh -338605.1 mb 0.00 in0.0 mm 0.00 in/hr0.0 mm/hr 0.00 in0.0 mm
05:07 PM 80.8°F27.1°C 7.5°F-13.6°C 6% 4.9 mph 7.9 kmh -- -338605.1 mb 0.00 in0.0 mm 0.00 in/hr0.0 mm/hr 0.00 in0.0 mm
05:12 PM 81.0°F27.2°C 7.7°F-13.5°C 6% 2.9 mph E4.7 kmh E 6.0 mph9.7 kmh -338605.1 mb 0.00 in0.0 mm 0.00 in/hr0.0 mm/hr 0.00 in0.0 mm
05:17 PM 81.0°F27.2°C 3.7°F-15.7°C 5% 4.0 mph E6.4 kmh E 0.9 mph1.4 kmh -338605.1 mb 0.00 in0.0 mm 0.00 in/hr0.0 mm/hr 0.00 in0.0 mm
05:22 PM 81.1°F27.3°C 7.9°F-13.4°C 6% 4.9 mph NE7.9 kmh NE 6.9 mph11.1 kmh -338605.1 mb 0.00 in0.0 mm 0.00 in/hr0.0 mm/hr 0.00 in0.0 mm
05:27 PM 80.8°F27.1°C 7.5°F-13.6°C 6% 4.0 mph E6.4 kmh E 4.0 mph6.4 kmh -338605.1 mb 0.00 in0.0 mm 0.00 in/hr0.0 mm/hr 0.00 in0.0 mm
05:32 PM 80.8°F27.1°C 7.5°F-13.6°C 6% 4.0 mph NE6.4 kmh NE 2.0 mph3.2 kmh -338605.1 mb 0.00 in0.0 mm 0.00 in/hr0.0 mm/hr 0.00 in0.0 mm
05:37 PM 80.6°F27.0°C 3.4°F-15.9°C 5% 2.9 mph NE4.7 kmh NE 2.0 mph3.2 kmh -338605.1 mb 0.00 in0.0 mm 0.00 in/hr0.0 mm/hr 0.00 in0.0 mm
05:42 PM 80.2°F26.8°C 7.2°F-13.8°C 6% 2.9 mph SE4.7 kmh SE 8.1 mph13.0 kmh -338605.1 mb 0.00 in0.0 mm 0.00 in/hr0.0 mm/hr 0.00 in0.0 mm
05:47 PM 80.2°F26.8°C 7.2°F-13.8°C 6% 4.0 mph ESE6.4 kmh ESE -- -338605.1 mb 0.00 in0.0 mm 0.00 in/hr0.0 mm/hr 0.00 in0.0 mm
05:52 PM 80.4°F26.9°C 7.3°F-13.7°C 6% 4.0 mph SE6.4 kmh SE -- -338605.1 mb 0.00 in0.0 mm 0.00 in/hr0.0 mm/hr 0.00 in0.0 mm
05:57 PM 80.8°F27.1°C 7.5°F-13.6°C 6% 2.9 mph NE4.7 kmh NE 0.9 mph1.4 kmh -338605.1 mb 0.00 in0.0 mm 0.00 in/hr0.0 mm/hr 0.00 in0.0 mm
06:02 PM 80.4°F26.9°C 7.3°F-13.7°C 6% 4.0 mph SE6.4 kmh SE 4.9 mph7.9 kmh -338605.1 mb 0.00 in0.0 mm 0.00 in/hr0.0 mm/hr 0.00 in0.0 mm
06:07 PM 80.2°F26.8°C 7.2°F-13.8°C 6% 4.9 mph E7.9 kmh E 8.1 mph13.0 kmh -338605.1 mb 0.00 in0.0 mm 0.00 in/hr0.0 mm/hr 0.00 in0.0 mm
06:12 PM 80.1°F26.7°C 7.0°F-13.9°C 6% 6.0 mph E9.7 kmh E 6.9 mph11.1 kmh -338605.1 mb 0.00 in0.0 mm 0.00 in/hr0.0 mm/hr 0.00 in0.0 mm
06:17 PM 79.5°F26.4°C 6.6°F-14.1°C 6% 4.9 mph E7.9 kmh E 8.9 mph14.3 kmh -338605.1 mb 0.00 in0.0 mm 0.00 in/hr0.0 mm/hr 0.00 in0.0 mm
06:22 PM 79.5°F26.4°C 6.6°F-14.1°C 6% 4.9 mph ENE7.9 kmh ENE 2.9 mph4.7 kmh -338605.1 mb 0.00 in0.0 mm 0.00 in/hr0.0 mm/hr 0.00 in0.0 mm
06:27 PM 79.0°F26.1°C 6.3°F-14.3°C 6% 4.9 mph SE7.9 kmh SE 2.9 mph4.7 kmh -338605.1 mb 0.00 in0.0 mm 0.00 in/hr0.0 mm/hr 0.00 in0.0 mm
06:32 PM 78.6°F25.9°C 5.9°F-14.5°C 6% 4.0 mph ESE6.4 kmh ESE 2.9 mph4.7 kmh -338605.1 mb 0.00 in0.0 mm 0.00 in/hr0.0 mm/hr 0.00 in0.0 mm
06:37 PM 78.3°F25.7°C 5.7°F-14.6°C 6% 2.9 mph ESE4.7 kmh ESE 4.0 mph6.4 kmh -338605.1 mb 0.00 in0.0 mm 0.00 in/hr0.0 mm/hr 0.00 in0.0 mm
06:42 PM 78.3°F25.7°C 5.7°F-14.6°C 6% 2.0 mph ESE3.2 kmh ESE 4.0 mph6.4 kmh -338605.1 mb 0.00 in0.0 mm 0.00 in/hr0.0 mm/hr 0.00 in0.0 mm
06:47 PM 78.1°F25.6°C 5.5°F-14.7°C 6% 2.9 mph ESE4.7 kmh ESE 4.0 mph6.4 kmh -338605.1 mb 0.00 in0.0 mm 0.00 in/hr0.0 mm/hr 0.00 in0.0 mm
06:52 PM 77.7°F25.4°C 5.4°F-14.8°C 6% 6.0 mph SE9.7 kmh SE 4.0 mph6.4 kmh -338605.1 mb 0.00 in0.0 mm 0.00 in/hr0.0 mm/hr 0.00 in0.0 mm
06:57 PM 77.5°F25.3°C 5.2°F-14.9°C 6% 4.9 mph ESE7.9 kmh ESE 6.9 mph11.1 kmh -338605.1 mb 0.00 in0.0 mm 0.00 in/hr0.0 mm/hr 0.00 in0.0 mm
07:02 PM 77.2°F25.1°C 8.2°F-13.2°C 7% 4.9 mph ESE7.9 kmh ESE 2.9 mph4.7 kmh -338605.1 mb 0.00 in0.0 mm 0.00 in/hr0.0 mm/hr 0.00 in0.0 mm
07:07 PM 76.6°F24.8°C 4.5°F-15.3°C 6% 4.9 mph ESE7.9 kmh ESE -- -338605.1 mb 0.00 in0.0 mm 0.00 in/hr0.0 mm/hr 0.00 in0.0 mm
07:12 PM 76.6°F24.8°C 4.5°F-15.3°C 6% 2.9 mph ESE4.7 kmh ESE 0.9 mph1.4 kmh -338605.1 mb 0.00 in0.0 mm 0.00 in/hr0.0 mm/hr 0.00 in0.0 mm
07:17 PM 76.8°F24.9°C 4.6°F-15.2°C 6% 2.0 mph ESE3.2 kmh ESE 0.9 mph1.4 kmh -338605.1 mb 0.00 in0.0 mm 0.00 in/hr0.0 mm/hr 0.00 in0.0 mm
07:22 PM 76.6°F24.8°C 4.5°F-15.3°C 6% 2.0 mph ESE3.2 kmh ESE 2.0 mph3.2 kmh -338605.1 mb 0.00 in0.0 mm 0.00 in/hr0.0 mm/hr 0.00 in0.0 mm
07:27 PM 76.3°F24.6°C 4.3°F-15.4°C 6% 0.9 mph ESE1.4 kmh ESE 4.0 mph6.4 kmh -338605.1 mb 0.00 in0.0 mm 0.00 in/hr0.0 mm/hr 0.00 in0.0 mm
07:32 PM 75.9°F24.4°C 7.3°F-13.7°C 7% 2.9 mph ESE4.7 kmh ESE 4.0 mph6.4 kmh -338605.1 mb 0.00 in0.0 mm 0.00 in/hr0.0 mm/hr 0.00 in0.0 mm
07:37 PM 75.7°F24.3°C 7.3°F-13.7°C 7% 4.0 mph E6.4 kmh E 2.9 mph4.7 kmh -338605.1 mb 0.00 in0.0 mm 0.00 in/hr0.0 mm/hr 0.00 in0.0 mm
07:42 PM 75.4°F24.1°C 7.0°F-13.9°C 7% 4.9 mph E7.9 kmh E 8.1 mph13.0 kmh -338605.1 mb 0.00 in0.0 mm 0.00 in/hr0.0 mm/hr 0.00 in0.0 mm
07:47 PM 75.0°F23.9°C 9.7°F-12.4°C 8% 6.0 mph ESE9.7 kmh ESE 4.0 mph6.4 kmh -338605.1 mb 0.00 in0.0 mm 0.00 in/hr0.0 mm/hr 0.00 in0.0 mm
07:52 PM 74.5°F23.6°C 12.0°F-11.1°C 9% 4.0 mph ESE6.4 kmh ESE 4.9 mph7.9 kmh -338605.1 mb 0.00 in0.0 mm 0.00 in/hr0.0 mm/hr 0.00 in0.0 mm
07:57 PM 74.1°F23.4°C 11.7°F-11.3°C 9% 4.0 mph ESE6.4 kmh ESE 4.9 mph7.9 kmh -338605.1 mb 0.00 in0.0 mm 0.00 in/hr0.0 mm/hr 0.00 in0.0 mm
08:02 PM 73.8°F23.2°C 11.5°F-11.4°C 9% 4.0 mph ESE6.4 kmh ESE 2.9 mph4.7 kmh -338605.1 mb 0.00 in0.0 mm 0.00 in/hr0.0 mm/hr 0.00 in0.0 mm
08:07 PM 73.4°F23.0°C 11.1°F-11.6°C 9% 4.0 mph ESE6.4 kmh ESE 4.9 mph7.9 kmh -338605.1 mb 0.00 in0.0 mm 0.00 in/hr0.0 mm/hr 0.00 in0.0 mm
08:12 PM 73.0°F22.8°C 10.9°F-11.7°C 9% 4.0 mph SE6.4 kmh SE 4.0 mph6.4 kmh -338605.1 mb 0.00 in0.0 mm 0.00 in/hr0.0 mm/hr 0.00 in0.0 mm
08:17 PM 72.7°F22.6°C 10.6°F-11.9°C 9% 2.9 mph SE4.7 kmh SE 4.0 mph6.4 kmh -338605.1 mb 0.00 in0.0 mm 0.00 in/hr0.0 mm/hr 0.00 in0.0 mm
08:22 PM 72.1°F22.3°C 10.2°F-12.1°C 9% 2.9 mph SE4.7 kmh SE 2.9 mph4.7 kmh -338605.1 mb 0.00 in0.0 mm 0.00 in/hr0.0 mm/hr 0.00 in0.0 mm
08:27 PM 71.8°F22.1°C 9.9°F-12.3°C 9% 4.0 mph SE6.4 kmh SE 2.9 mph4.7 kmh -338605.1 mb 0.00 in0.0 mm 0.00 in/hr0.0 mm/hr 0.00 in0.0 mm
08:32 PM 71.1°F21.7°C 9.3°F-12.6°C 9% 4.0 mph SE6.4 kmh SE 4.9 mph7.9 kmh -338605.1 mb 0.00 in0.0 mm 0.00 in/hr0.0 mm/hr 0.00 in0.0 mm
08:37 PM 70.5°F21.4°C 11.3°F-11.5°C 10% 4.0 mph SE6.4 kmh SE 2.9 mph4.7 kmh -338605.1 mb 0.00 in0.0 mm 0.00 in/hr0.0 mm/hr 0.00 in0.0 mm
08:42 PM 70.2°F21.2°C 8.6°F-13.0°C 9% 4.0 mph SE6.4 kmh SE 2.9 mph4.7 kmh -338605.1 mb 0.00 in0.0 mm 0.00 in/hr0.0 mm/hr 0.00 in0.0 mm
08:47 PM 69.6°F20.9°C 10.6°F-11.9°C 10% 2.9 mph SE4.7 kmh SE 0.9 mph1.4 kmh -338605.1 mb 0.00 in0.0 mm 0.00 in/hr0.0 mm/hr 0.00 in0.0 mm
08:52 PM 69.3°F20.7°C 10.4°F-12.0°C 10% 2.0 mph SE3.2 kmh SE 0.9 mph1.4 kmh -338605.1 mb 0.00 in0.0 mm 0.00 in/hr0.0 mm/hr 0.00 in0.0 mm
08:57 PM 69.1°F20.6°C 12.4°F-10.9°C 11% 2.0 mph SE3.2 kmh SE 4.0 mph6.4 kmh -338605.1 mb 0.00 in0.0 mm 0.00 in/hr0.0 mm/hr 0.00 in0.0 mm
09:02 PM 68.4°F20.2°C 13.8°F-10.1°C 12% 2.9 mph WSW4.7 kmh WSW 2.9 mph4.7 kmh -338605.1 mb 0.00 in0.0 mm 0.00 in/hr0.0 mm/hr 0.00 in0.0 mm
09:07 PM 68.5°F20.3°C 15.8°F-9.0°C 13% 2.9 mph WSW4.7 kmh WSW 2.9 mph4.7 kmh -338605.1 mb 0.00 in0.0 mm 0.00 in/hr0.0 mm/hr 0.00 in0.0 mm
09:12 PM 69.3°F20.7°C 26.4°F-3.1°C 20% 4.0 mph SW6.4 kmh SW 6.0 mph9.7 kmh -338605.1 mb 0.00 in0.0 mm 0.00 in/hr0.0 mm/hr 0.00 in0.0 mm
09:17 PM 69.4°F20.8°C 25.3°F-3.7°C 19% 6.9 mph WSW11.1 kmh WSW 2.9 mph4.7 kmh -338605.1 mb 0.00 in0.0 mm 0.00 in/hr0.0 mm/hr 0.00 in0.0 mm
09:22 PM 69.1°F20.6°C 26.2°F-3.2°C 20% 6.9 mph SW11.1 kmh SW 6.9 mph11.1 kmh -338605.1 mb 0.00 in0.0 mm 0.00 in/hr0.0 mm/hr 0.00 in0.0 mm
09:27 PM 68.9°F20.5°C 26.2°F-3.2°C 20% 8.1 mph SW13.0 kmh SW 8.1 mph13.0 kmh -338605.1 mb 0.00 in0.0 mm 0.00 in/hr0.0 mm/hr 0.00 in0.0 mm
09:32 PM 68.7°F20.4°C 28.4°F-2.0°C 22% 10.1 mph SW16.3 kmh SW 13.0 mph20.9 kmh -338605.1 mb 0.00 in0.0 mm 0.00 in/hr0.0 mm/hr 0.00 in0.0 mm
09:37 PM 68.5°F20.3°C 29.3°F-1.5°C 23% 8.9 mph SW14.3 kmh SW 8.9 mph14.3 kmh -338605.1 mb 0.00 in0.0 mm 0.00 in/hr0.0 mm/hr 0.00 in0.0 mm
09:42 PM 68.2°F20.1°C 30.0°F-1.1°C 24% 8.1 mph SW13.0 kmh SW 8.1 mph13.0 kmh -338605.1 mb 0.00 in0.0 mm 0.00 in/hr0.0 mm/hr 0.00 in0.0 mm
09:47 PM 67.8°F19.9°C 30.7°F-0.7°C 25% 6.9 mph SSW11.1 kmh SSW 6.0 mph9.7 kmh -338605.1 mb 0.00 in0.0 mm 0.00 in/hr0.0 mm/hr 0.00 in0.0 mm
09:52 PM 67.8°F19.9°C 31.6°F-0.2°C 26% 8.1 mph SW13.0 kmh SW 10.1 mph16.3 kmh -338605.1 mb 0.00 in0.0 mm 0.00 in/hr0.0 mm/hr 0.00 in0.0 mm
09:57 PM 67.6°F19.8°C 31.5°F-0.3°C 26% 8.1 mph SW13.0 kmh SW 6.0 mph9.7 kmh -338605.1 mb 0.00 in0.0 mm 0.00 in/hr0.0 mm/hr 0.00 in0.0 mm
10:02 PM 67.5°F19.7°C 32.4°F0.2°C 27% 8.1 mph SW13.0 kmh SW 10.1 mph16.3 kmh -338605.1 mb 0.00 in0.0 mm 0.00 in/hr0.0 mm/hr 0.00 in0.0 mm
10:07 PM 67.3°F19.6°C 33.1°F0.6°C 28% 8.1 mph SW13.0 kmh SW 6.0 mph9.7 kmh -338605.1 mb 0.00 in0.0 mm 0.00 in/hr0.0 mm/hr 0.00 in0.0 mm
10:12 PM 67.1°F19.5°C 32.9°F0.5°C 28% 8.1 mph SW13.0 kmh SW 10.1 mph16.3 kmh -338605.1 mb 0.00 in0.0 mm 0.00 in/hr0.0 mm/hr 0.00 in0.0 mm
10:17 PM 67.1°F19.5°C 32.9°F0.5°C 28% 8.9 mph SW14.3 kmh SW 12.1 mph19.5 kmh -338605.1 mb 0.00 in0.0 mm 0.00 in/hr0.0 mm/hr 0.00 in0.0 mm
10:22 PM 66.9°F19.4°C 33.6°F0.9°C 29% 8.9 mph SW14.3 kmh SW 8.9 mph14.3 kmh -338605.1 mb 0.00 in0.0 mm 0.00 in/hr0.0 mm/hr 0.00 in0.0 mm
10:27 PM 66.7°F19.3°C 33.4°F0.8°C 29% 8.9 mph SW14.3 kmh SW 8.9 mph14.3 kmh -338605.1 mb 0.00 in0.0 mm 0.00 in/hr0.0 mm/hr 0.00 in0.0 mm
10:32 PM 66.6°F19.2°C 33.3°F0.7°C 29% 8.1 mph SW13.0 kmh SW 8.9 mph14.3 kmh -338605.1 mb 0.00 in0.0 mm 0.00 in/hr0.0 mm/hr 0.00 in0.0 mm
10:37 PM 66.4°F19.1°C 33.1°F0.6°C 29% 8.1 mph WSW13.0 kmh WSW 4.0 mph6.4 kmh -338605.1 mb 0.00 in0.0 mm 0.00 in/hr0.0 mm/hr 0.00 in0.0 mm
10:42 PM 66.0°F18.9°C 33.6°F0.9°C 30% 8.1 mph SW13.0 kmh SW 8.1 mph13.0 kmh -338605.1 mb 0.00 in0.0 mm 0.00 in/hr0.0 mm/hr 0.00 in0.0 mm
10:47 PM 65.8°F18.8°C 33.6°F0.9°C 30% 8.1 mph SW13.0 kmh SW 6.0 mph9.7 kmh -338605.1 mb 0.00 in0.0 mm 0.00 in/hr0.0 mm/hr 0.00 in0.0 mm
10:52 PM 65.8°F18.8°C 33.6°F0.9°C 30% 8.1 mph WSW13.0 kmh WSW 6.9 mph11.1 kmh -338605.1 mb 0.00 in0.0 mm 0.00 in/hr0.0 mm/hr 0.00 in0.0 mm
10:57 PM 65.7°F18.7°C 33.4°F0.8°C 30% 8.1 mph WSW13.0 kmh WSW 4.9 mph7.9 kmh -338605.1 mb 0.00 in0.0 mm 0.00 in/hr0.0 mm/hr 0.00 in0.0 mm
11:02 PM 65.7°F18.7°C 33.4°F0.8°C 30% 6.9 mph SW11.1 kmh SW 6.9 mph11.1 kmh -338605.1 mb 0.00 in0.0 mm 0.00 in/hr0.0 mm/hr 0.00 in0.0 mm
11:07 PM 65.7°F18.7°C 32.5°F0.3°C 29% 6.9 mph SW11.1 kmh SW 10.1 mph16.3 kmh -338605.1 mb 0.00 in0.0 mm 0.00 in/hr0.0 mm/hr 0.00 in0.0 mm
11:12 PM 65.7°F18.7°C 32.5°F0.3°C 29% 6.9 mph WSW11.1 kmh WSW 4.9 mph7.9 kmh -338605.1 mb 0.00 in0.0 mm 0.00 in/hr0.0 mm/hr 0.00 in0.0 mm
11:17 PM 65.5°F18.6°C 31.5°F-0.3°C 28% 6.9 mph WSW11.1 kmh WSW 4.9 mph7.9 kmh -338605.1 mb 0.00 in0.0 mm 0.00 in/hr0.0 mm/hr 0.00 in0.0 mm
11:22 PM 65.5°F18.6°C 32.4°F0.2°C 29% 6.9 mph SW11.1 kmh SW 10.1 mph16.3 kmh -338605.1 mb 0.00 in0.0 mm 0.00 in/hr0.0 mm/hr 0.00 in0.0 mm
11:27 PM 65.5°F18.6°C 32.4°F0.2°C 29% 6.9 mph WSW11.1 kmh WSW 10.1 mph16.3 kmh -338605.1 mb 0.00 in0.0 mm 0.00 in/hr0.0 mm/hr 0.00 in0.0 mm
11:32 PM 65.3°F18.5°C 32.2°F0.1°C 29% 6.9 mph SW11.1 kmh SW 10.1 mph16.3 kmh -338605.1 mb 0.00 in0.0 mm 0.00 in/hr0.0 mm/hr 0.00 in0.0 mm
11:37 PM 64.9°F18.3°C 32.0°F0.0°C 29% 6.9 mph SW11.1 kmh SW 4.9 mph7.9 kmh -338605.1 mb 0.00 in0.0 mm 0.00 in/hr0.0 mm/hr 0.00 in0.0 mm
11:42 PM 64.9°F18.3°C 32.0°F0.0°C 29% 6.0 mph SW9.7 kmh SW 6.9 mph11.1 kmh -338605.1 mb 0.00 in0.0 mm 0.00 in/hr0.0 mm/hr 0.00 in0.0 mm
11:47 PM 64.9°F18.3°C 32.0°F0.0°C 29% 6.0 mph WSW9.7 kmh WSW 6.9 mph11.1 kmh -338605.1 mb 0.00 in0.0 mm 0.00 in/hr0.0 mm/hr 0.00 in0.0 mm
11:52 PM 64.9°F18.3°C 31.1°F-0.5°C 28% 6.0 mph SW9.7 kmh SW 4.9 mph7.9 kmh -338605.1 mb 0.00 in0.0 mm 0.00 in/hr0.0 mm/hr 0.00 in0.0 mm
11:57 PM 64.8°F18.2°C 30.9°F-0.6°C 28% 4.0 mph SW6.4 kmh SW 2.9 mph4.7 kmh -338605.1 mb 0.00 in0.0 mm 0.00 in/hr0.0 mm/hr 0.00 in0.0 mm